createdAt,value
2018-09-26T00:00:53.483Z,5.58
2018-09-26T00:02:16.101Z,2.90
2018-09-26T00:03:36.276Z,4.22
2018-09-26T00:04:54.981Z,3.17
2018-09-26T00:06:11.985Z,2.37
2018-09-26T00:08:52.623Z,2.00
2018-09-26T00:10:10.120Z,3.40
2018-09-26T00:11:27.481Z,3.35
2018-09-26T00:12:45.235Z,6.67
2018-09-26T00:14:02.704Z,6.78
2018-09-26T00:15:20.252Z,2.20
2018-09-26T00:16:38.433Z,2.77
2018-09-26T00:17:55.484Z,1.70
2018-09-26T00:19:12.284Z,1.40
2018-09-26T00:20:29.383Z,3.55
2018-09-26T00:21:46.830Z,2.65
2018-09-26T00:23:03.468Z,5.15
2018-09-26T00:24:19.938Z,2.00
2018-09-26T00:25:40.787Z,2.95
2018-09-26T00:26:57.771Z,6.78
2018-09-26T00:28:25.004Z,3.52
2018-09-26T00:29:42.043Z,2.70
2018-09-26T00:30:58.907Z,2.30
2018-09-26T00:32:22.251Z,1.37
2018-09-26T00:33:39.509Z,1.47
2018-09-26T00:34:57.770Z,6.70
2018-09-26T00:36:15.003Z,8.40
2018-09-26T00:37:32.834Z,3.87
2018-09-26T00:38:51.947Z,1.80
2018-09-26T00:40:20.108Z,1.67
2018-09-26T00:41:37.194Z,4.08
2018-09-26T00:42:54.701Z,1.37
2018-09-26T00:44:15.525Z,3.05
2018-09-26T00:45:36.140Z,1.67
2018-09-26T00:46:53.852Z,4.75
2018-09-26T00:48:12.256Z,2.77
2018-09-26T00:49:30.026Z,2.27
2018-09-26T00:50:49.915Z,1.72
2018-09-26T00:52:06.512Z,3.55
2018-09-26T00:53:23.525Z,3.60
2018-09-26T00:54:41.734Z,1.60
2018-09-26T00:55:58.877Z,2.22
2018-09-26T00:57:15.436Z,3.33
2018-09-26T00:58:32.048Z,2.50
2018-09-26T00:59:49.085Z,1.60
2018-09-26T01:01:11.580Z,2.05
2018-09-26T01:02:28.525Z,1.77
2018-09-26T01:03:45.990Z,1.50
2018-09-26T01:05:04.255Z,2.25
2018-09-26T01:06:21.288Z,1.10
2018-09-26T01:07:38.842Z,5.42
2018-09-26T01:08:55.776Z,3.15
2018-09-26T01:10:12.722Z,2.27
2018-09-26T01:11:30.509Z,2.02
2018-09-26T01:12:47.974Z,3.15
2018-09-26T01:14:06.283Z,3.33
2018-09-26T01:15:23.000Z,2.40
2018-09-26T01:16:39.930Z,1.67
2018-09-26T01:17:57.425Z,2.87
2018-09-26T01:19:21.678Z,2.30
2018-09-26T01:20:41.116Z,1.70
2018-09-26T01:21:58.269Z,3.27
2018-09-26T01:23:15.663Z,1.70
2018-09-26T01:24:32.949Z,4.55
2018-09-26T01:25:49.924Z,1.87
2018-09-26T01:27:32.905Z,2.67
2018-09-26T01:28:50.000Z,2.00
2018-09-26T01:30:07.517Z,2.37
2018-09-26T01:31:24.152Z,1.40
2018-09-26T01:32:40.862Z,6.58
2018-09-26T01:33:57.677Z,7.97
2018-09-26T01:35:16.194Z,2.22
2018-09-26T01:36:34.122Z,3.83
2018-09-26T01:37:56.145Z,1.95
2018-09-26T01:39:13.319Z,4.55
2018-09-26T01:40:29.909Z,2.62
2018-09-26T01:41:46.769Z,2.85
2018-09-26T01:43:08.711Z,1.20
2018-09-26T01:44:26.701Z,2.55
2018-09-26T01:45:47.235Z,1.85
2018-09-26T01:47:04.588Z,7.92
2018-09-26T01:48:21.207Z,2.72
2018-09-26T01:49:38.528Z,3.92
2018-09-26T01:50:55.869Z,1.65
2018-09-26T01:52:12.493Z,2.25
2018-09-26T01:53:29.989Z,1.22
2018-09-26T01:54:47.736Z,2.20
2018-09-26T01:56:05.218Z,1.35
2018-09-26T01:57:22.725Z,2.58
2018-09-26T01:58:39.366Z,1.50
2018-09-26T01:59:56.183Z,1.65
2018-09-26T02:01:13.433Z,1.40
2018-09-26T02:02:30.652Z,2.02
2018-09-26T02:03:47.786Z,1.50
2018-09-26T02:05:04.957Z,2.00
2018-09-26T02:06:22.183Z,2.90
2018-09-26T02:07:43.372Z,2.55
2018-09-26T02:09:00.122Z,2.98
2018-09-26T02:10:17.052Z,1.60
2018-09-26T02:11:33.969Z,5.83
2018-09-26T02:12:50.801Z,2.95
2018-09-26T02:14:08.646Z,1.57
2018-09-26T02:15:25.996Z,5.78
2018-09-26T02:16:42.805Z,3.15
2018-09-26T02:17:59.836Z,2.20
2018-09-26T02:19:16.654Z,9.50
2018-09-26T02:20:33.405Z,2.00
2018-09-26T02:21:50.413Z,1.92
2018-09-26T02:23:08.633Z,1.50
2018-09-26T02:24:25.476Z,1.37
2018-09-26T02:25:42.677Z,1.60
2018-09-26T02:27:00.035Z,1.80
2018-09-26T02:28:16.567Z,3.22
2018-09-26T02:29:33.296Z,3.65
2018-09-26T02:30:54.800Z,2.12
2018-09-26T02:32:12.147Z,2.70
2018-09-26T02:33:32.520Z,1.65
2018-09-26T02:34:49.920Z,1.65
2018-09-26T02:36:07.533Z,3.12
2018-09-26T02:37:25.269Z,1.42
2018-09-26T02:38:42.677Z,4.70
2018-09-26T02:39:59.667Z,2.67
2018-09-26T02:41:17.186Z,1.40
2018-09-26T02:42:37.754Z,2.50
2018-09-26T02:43:55.072Z,1.12
2018-09-26T02:45:12.102Z,4.60
2018-09-26T02:46:28.913Z,2.85
2018-09-26T02:47:45.687Z,2.20
2018-09-26T02:49:08.039Z,3.50
2018-09-26T02:50:29.759Z,4.22
2018-09-26T02:51:46.927Z,2.05
2018-09-26T02:53:03.862Z,4.83
2018-09-26T02:54:21.297Z,4.20
2018-09-26T02:55:38.036Z,6.53
2018-09-26T02:56:55.095Z,2.62
2018-09-26T02:58:12.580Z,3.00
2018-09-26T02:59:29.989Z,2.42
2018-09-26T03:00:46.757Z,2.12
2018-09-26T03:02:04.444Z,1.75
2018-09-26T03:03:22.029Z,2.30
2018-09-26T03:04:38.693Z,3.08
2018-09-26T03:05:55.606Z,1.82
2018-09-26T03:07:12.542Z,1.57
2018-09-26T03:08:30.070Z,3.25
2018-09-26T03:09:46.893Z,1.50
2018-09-26T03:11:04.450Z,9.68
2018-09-26T03:12:20.960Z,1.98
2018-09-26T03:13:38.054Z,1.67
2018-09-26T03:14:54.888Z,3.55
2018-09-26T03:16:12.149Z,1.75
2018-09-26T03:17:28.782Z,1.40
2018-09-26T03:18:46.460Z,1.45
2018-09-26T03:20:03.578Z,2.08
2018-09-26T03:21:21.013Z,5.08
2018-09-26T03:22:37.757Z,1.15
2018-09-26T03:23:54.648Z,1.37
2018-09-26T03:25:14.571Z,4.05
2018-09-26T03:26:31.302Z,2.30
2018-09-26T03:27:52.351Z,1.75
2018-09-26T03:29:10.085Z,3.75
2018-09-26T03:30:27.354Z,2.15
2018-09-26T03:31:45.005Z,4.60
2018-09-26T03:33:02.649Z,2.55
2018-09-26T03:34:21.080Z,3.98
2018-09-26T03:36:59.938Z,3.15
2018-09-26T03:38:19.212Z,1.20
2018-09-26T03:39:35.915Z,2.17
2018-09-26T03:40:53.044Z,1.75
2018-09-26T03:42:10.560Z,3.62
2018-09-26T03:43:28.284Z,14.70
2018-09-26T03:44:45.240Z,9.13
2018-09-26T03:46:01.739Z,3.02
2018-09-26T03:47:23.454Z,3.65
2018-09-26T03:48:40.870Z,1.75
2018-09-26T03:49:57.658Z,1.67
2018-09-26T03:51:14.555Z,30.90
2018-09-26T03:52:31.969Z,1.45
2018-09-26T03:53:49.413Z,2.70
2018-09-26T03:55:07.958Z,1.32
2018-09-26T03:56:24.478Z,7.90
2018-09-26T03:57:41.302Z,4.70
2018-09-26T03:58:59.864Z,2.12
2018-09-26T04:00:18.584Z,1.27
2018-09-26T04:01:35.397Z,2.70
2018-09-26T04:02:51.925Z,2.35
2018-09-26T04:04:08.940Z,5.37
2018-09-26T04:05:26.500Z,2.83
2018-09-26T04:06:44.049Z,0.98
2018-09-26T04:08:00.949Z,3.67
2018-09-26T04:09:18.316Z,1.98
2018-09-26T04:10:34.991Z,3.35
2018-09-26T04:11:51.590Z,2.45
2018-09-26T04:13:08.589Z,1.77
2018-09-26T04:14:26.929Z,1.42
2018-09-26T04:15:52.920Z,3.85
2018-09-26T04:17:09.832Z,5.12
2018-09-26T04:19:57.463Z,2.15
2018-09-26T04:21:14.530Z,2.42
2018-09-26T04:22:32.050Z,5.03
2018-09-26T04:23:48.725Z,2.22
2018-09-26T04:25:17.149Z,1.10
2018-09-26T04:26:34.074Z,1.20
2018-09-26T04:27:51.190Z,2.50
2018-09-26T04:29:08.252Z,7.08
2018-09-26T04:30:25.220Z,1.22
2018-09-26T04:31:41.713Z,2.47
2018-09-26T04:32:59.095Z,3.10
2018-09-26T04:34:17.005Z,4.72
2018-09-26T04:35:33.912Z,2.27
2018-09-26T04:36:50.644Z,3.02
2018-09-26T04:38:08.163Z,3.98
2018-09-26T04:39:25.065Z,1.77
2018-09-26T04:40:42.758Z,3.55
2018-09-26T04:41:59.331Z,3.67
2018-09-26T04:44:39.948Z,1.50
2018-09-26T04:45:56.612Z,1.90
2018-09-26T04:47:13.460Z,3.33
2018-09-26T04:48:37.671Z,2.05
2018-09-26T04:49:55.469Z,2.15
2018-09-26T04:51:12.215Z,2.60
2018-09-26T04:52:29.657Z,2.30
2018-09-26T04:53:50.237Z,3.67
2018-09-26T04:55:07.478Z,4.87
2018-09-26T04:56:27.156Z,7.90
2018-09-26T04:57:47.644Z,5.53
2018-09-26T04:59:04.734Z,5.53
2018-09-26T05:00:22.724Z,8.23
2018-09-26T05:01:39.489Z,10.82
2018-09-26T05:02:57.838Z,7.87
2018-09-26T05:04:15.233Z,5.70
2018-09-26T05:05:31.716Z,4.03
2018-09-26T05:06:48.687Z,3.30
2018-09-26T05:08:06.250Z,3.90
2018-09-26T05:09:23.167Z,2.90
2018-09-26T05:10:40.129Z,2.15
2018-09-26T05:11:57.442Z,13.22
2018-09-26T05:13:14.422Z,4.15
2018-09-26T05:14:31.834Z,7.22
2018-09-26T05:15:49.019Z,17.60
2018-09-26T05:17:07.353Z,3.02
2018-09-26T05:18:29.840Z,4.58
2018-09-26T05:19:50.369Z,1.57
2018-09-26T05:21:08.977Z,3.47
2018-09-26T05:22:26.664Z,1.90
2018-09-26T05:23:43.915Z,11.25
2018-09-26T05:25:00.919Z,2.25
2018-09-26T05:26:18.346Z,6.45
2018-09-26T05:27:35.915Z,4.35
2018-09-26T05:28:52.697Z,3.75
2018-09-26T05:30:09.893Z,8.13
2018-09-26T05:31:29.447Z,8.85
2018-09-26T05:32:46.060Z,8.08
2018-09-26T05:34:07.520Z,4.65
2018-09-26T05:35:24.467Z,3.70
2018-09-26T05:36:41.358Z,3.55
2018-09-26T05:37:58.686Z,2.92
2018-09-26T05:39:17.533Z,8.33
2018-09-26T05:40:41.639Z,3.30
2018-09-26T05:41:58.981Z,6.55
2018-09-26T05:43:16.057Z,2.70
2018-09-26T05:44:33.013Z,3.75
2018-09-26T05:45:49.947Z,7.17
2018-09-26T05:47:09.330Z,10.67
2018-09-26T05:48:26.734Z,3.00
2018-09-26T05:49:45.093Z,12.07
2018-09-26T05:51:02.705Z,3.98
2018-09-26T05:52:20.295Z,3.80
2018-09-26T05:53:37.983Z,3.47
2018-09-26T05:54:59.761Z,6.53
2018-09-26T05:57:38.800Z,13.08
2018-09-26T05:58:55.390Z,9.38
2018-09-26T06:00:12.305Z,9.38
2018-09-26T06:01:30.222Z,5.70
2018-09-26T06:02:50.450Z,5.22
2018-09-26T06:04:10.734Z,6.08
2018-09-26T06:05:28.824Z,12.20
2018-09-26T06:06:45.919Z,5.92
2018-09-26T06:08:03.293Z,11.55
2018-09-26T06:09:24.744Z,5.45
2018-09-26T06:10:42.499Z,8.13
2018-09-26T06:12:00.724Z,3.42
2018-09-26T06:13:17.710Z,3.62
2018-09-26T06:14:37.286Z,4.53
2018-09-26T06:15:53.876Z,4.42
2018-09-26T06:17:11.098Z,2.20
2018-09-26T06:18:29.390Z,6.17
2018-09-26T06:19:46.689Z,2.20
2018-09-26T06:21:05.223Z,1.95
2018-09-26T06:22:22.813Z,3.30
2018-09-26T06:23:42.947Z,3.85
2018-09-26T06:25:02.138Z,3.60
2018-09-26T06:26:20.121Z,5.08
2018-09-26T06:27:37.639Z,1.90
2018-09-26T06:28:54.717Z,4.55
2018-09-26T06:30:15.235Z,4.20
2018-09-26T06:31:33.690Z,6.08
2018-09-26T06:32:51.300Z,8.98
2018-09-26T06:34:09.587Z,3.85
2018-09-26T06:35:26.436Z,7.05
2018-09-26T06:36:43.768Z,6.25
2018-09-26T06:38:00.866Z,2.40
2018-09-26T06:39:17.821Z,24.55
2018-09-26T06:40:34.510Z,10.75
2018-09-26T06:41:51.595Z,4.95
2018-09-26T06:43:09.313Z,4.87
2018-09-26T06:44:26.841Z,4.00
2018-09-26T06:47:09.031Z,2.37
2018-09-26T06:48:26.590Z,7.22
2018-09-26T06:49:44.027Z,9.38
2018-09-26T06:51:00.849Z,10.15
2018-09-26T06:52:19.480Z,7.62
2018-09-26T06:53:36.257Z,2.27
2018-09-26T06:54:53.182Z,5.40
2018-09-26T06:56:10.317Z,3.75
2018-09-26T06:57:27.856Z,8.10
2018-09-26T06:58:45.293Z,4.60
2018-09-26T07:00:02.460Z,2.77
2018-09-26T07:01:19.126Z,6.17
2018-09-26T07:02:35.910Z,4.70
2018-09-26T07:03:53.066Z,3.58
2018-09-26T07:05:10.852Z,5.47
2018-09-26T07:06:29.065Z,5.12
2018-09-26T07:07:46.682Z,1.62
2018-09-26T07:09:04.148Z,3.27
2018-09-26T07:10:21.047Z,4.37
2018-09-26T07:11:39.167Z,5.72
2018-09-26T07:12:56.491Z,4.62
2018-09-26T07:14:13.170Z,3.40
2018-09-26T07:15:30.126Z,6.28
2018-09-26T07:16:47.640Z,3.87
2018-09-26T07:18:07.232Z,4.25
2018-09-26T07:19:24.782Z,4.28
2018-09-26T07:20:42.353Z,6.60
2018-09-26T07:21:59.129Z,4.90
2018-09-26T07:23:15.785Z,6.30
2018-09-26T07:24:33.559Z,4.85
2018-09-26T07:25:51.094Z,3.90
2018-09-26T07:27:07.681Z,8.15
2018-09-26T07:28:24.385Z,5.03
2018-09-26T07:29:41.906Z,6.28
2018-09-26T07:31:06.098Z,7.92
2018-09-26T07:32:22.627Z,2.65
2018-09-26T07:33:39.973Z,4.65
2018-09-26T07:36:19.849Z,4.87
2018-09-26T07:37:38.701Z,14.28
2018-09-26T07:38:55.461Z,5.50
2018-09-26T07:40:13.180Z,8.93
2018-09-26T07:41:31.081Z,5.40
2018-09-26T07:42:48.992Z,16.00
2018-09-26T07:44:06.410Z,5.08
2018-09-26T07:45:24.413Z,8.33
2018-09-26T07:46:42.509Z,2.00
2018-09-26T07:47:59.938Z,2.30
2018-09-26T07:49:16.742Z,2.95
2018-09-26T07:50:34.285Z,11.03
2018-09-26T07:51:51.142Z,3.60
2018-09-26T07:54:29.274Z,5.58
2018-09-26T07:55:46.632Z,3.55
2018-09-26T07:57:07.969Z,3.62
2018-09-26T07:58:25.710Z,3.22
2018-09-26T07:59:45.085Z,5.97
2018-09-26T08:01:03.186Z,11.55
2018-09-26T08:02:23.228Z,5.42
2018-09-26T08:03:44.239Z,6.58
2018-09-26T08:05:01.662Z,9.08
2018-09-26T08:06:18.410Z,4.20
2018-09-26T08:07:37.124Z,3.33
2018-09-26T08:08:56.687Z,2.42
2018-09-26T08:10:14.381Z,2.47
2018-09-26T08:11:31.338Z,3.20
2018-09-26T08:12:53.074Z,3.62
2018-09-26T08:14:12.249Z,4.80
2018-09-26T08:15:29.234Z,3.60
2018-09-26T08:16:47.001Z,9.23
2018-09-26T08:18:04.681Z,5.67
2018-09-26T08:19:22.082Z,7.90
2018-09-26T08:20:39.477Z,2.15
2018-09-26T08:21:56.767Z,6.20
2018-09-26T08:23:14.776Z,3.05
2018-09-26T08:24:31.817Z,2.42
2018-09-26T08:25:49.992Z,5.47
2018-09-26T08:27:07.124Z,7.37
2018-09-26T08:28:30.316Z,2.77
2018-09-26T08:29:47.480Z,3.02
2018-09-26T08:31:04.285Z,4.30
2018-09-26T08:32:21.121Z,3.15
2018-09-26T08:33:38.793Z,3.15
2018-09-26T08:34:57.516Z,3.67
2018-09-26T08:36:19.391Z,6.50
2018-09-26T08:37:36.967Z,4.95
2018-09-26T08:38:56.564Z,7.53
2018-09-26T08:40:13.731Z,6.30
2018-09-26T08:41:30.693Z,5.28
2018-09-26T08:42:50.544Z,3.62
2018-09-26T08:44:08.070Z,6.65
2018-09-26T08:45:24.940Z,4.35
2018-09-26T08:46:43.189Z,7.75
2018-09-26T08:48:00.278Z,3.58
2018-09-26T08:49:17.761Z,3.00
2018-09-26T08:50:34.979Z,2.92
2018-09-26T08:51:51.598Z,4.75
2018-09-26T08:53:08.393Z,4.83
2018-09-26T08:54:26.167Z,4.10
2018-09-26T08:55:42.983Z,3.58
2018-09-26T08:57:06.313Z,7.10
2018-09-26T08:58:24.255Z,3.25
2018-09-26T08:59:42.152Z,3.45
2018-09-26T09:01:04.188Z,6.05
2018-09-26T09:02:21.320Z,14.98
2018-09-26T09:03:39.554Z,13.03
2018-09-26T09:05:02.090Z,4.50
2018-09-26T09:06:19.038Z,9.18
2018-09-26T09:07:36.356Z,12.30
2018-09-26T09:08:52.921Z,2.87
2018-09-26T09:10:11.611Z,6.35
2018-09-26T09:11:29.204Z,6.87
2018-09-26T09:12:46.501Z,3.67
2018-09-26T09:14:04.652Z,2.25
2018-09-26T09:15:21.782Z,3.65
2018-09-26T09:16:39.798Z,4.17
2018-09-26T09:17:59.390Z,7.08
2018-09-26T09:19:16.116Z,3.80
2018-09-26T09:20:34.982Z,2.95
2018-09-26T09:21:56.244Z,3.25
2018-09-26T09:23:14.135Z,5.65
2018-09-26T09:24:32.063Z,4.80
2018-09-26T09:25:49.130Z,5.22
2018-09-26T09:27:06.678Z,1.95
2018-09-26T09:28:23.723Z,5.17
2018-09-26T09:29:41.962Z,3.67
2018-09-26T09:31:00.062Z,2.85
2018-09-26T09:32:16.833Z,3.37
2018-09-26T09:33:36.165Z,2.05
2018-09-26T09:34:55.881Z,7.25
2018-09-26T09:36:13.640Z,2.95
2018-09-26T09:37:30.860Z,13.38
2018-09-26T09:38:48.226Z,2.67
2018-09-26T09:40:07.057Z,3.42
2018-09-26T09:41:25.033Z,6.05
2018-09-26T09:42:41.883Z,4.72
2018-09-26T09:44:00.285Z,22.67
2018-09-26T09:45:17.142Z,4.37
2018-09-26T09:46:34.723Z,8.08
2018-09-26T09:47:51.303Z,2.25
2018-09-26T09:49:08.439Z,3.25
2018-09-26T09:50:25.104Z,4.30
2018-09-26T09:51:42.155Z,2.87
2018-09-26T09:52:58.648Z,4.22
2018-09-26T09:54:16.617Z,3.67
2018-09-26T09:55:33.255Z,9.10
2018-09-26T09:56:50.866Z,3.65
2018-09-26T09:58:08.193Z,3.62
2018-09-26T09:59:24.989Z,4.12
2018-09-26T10:00:47.133Z,7.58
2018-09-26T10:02:03.744Z,6.35
2018-09-26T10:03:22.607Z,8.03
2018-09-26T10:04:39.267Z,5.65
2018-09-26T10:05:56.093Z,5.53
2018-09-26T10:07:13.697Z,7.10
2018-09-26T10:08:31.066Z,8.70
2018-09-26T10:09:48.906Z,3.47
2018-09-26T10:11:07.269Z,9.93
2018-09-26T10:12:24.092Z,4.03
2018-09-26T10:13:40.631Z,5.28
2018-09-26T10:14:57.483Z,2.20
2018-09-26T10:16:14.942Z,4.55
2018-09-26T10:17:32.000Z,5.80
2018-09-26T10:18:49.913Z,3.92
2018-09-26T10:20:07.152Z,7.50
2018-09-26T10:21:24.304Z,6.80
2018-09-26T10:22:41.233Z,4.80
2018-09-26T10:23:59.112Z,3.72
2018-09-26T10:25:16.220Z,3.02
2018-09-26T10:26:34.329Z,2.70
2018-09-26T10:27:55.603Z,4.53
2018-09-26T10:29:14.369Z,4.00
2018-09-26T10:30:31.985Z,4.97
2018-09-26T10:31:48.712Z,8.00
2018-09-26T10:33:06.619Z,7.08
2018-09-26T10:34:23.792Z,2.37
2018-09-26T10:35:41.029Z,3.52
2018-09-26T10:36:58.385Z,4.17
2018-09-26T10:38:15.487Z,3.10
2018-09-26T10:39:33.612Z,3.87
2018-09-26T10:40:54.573Z,12.98
2018-09-26T10:42:12.161Z,3.40
2018-09-26T10:43:29.704Z,3.90
2018-09-26T10:44:48.792Z,4.35
2018-09-26T10:46:06.414Z,3.05
2018-09-26T10:47:23.935Z,3.45
2018-09-26T10:48:42.128Z,2.10
2018-09-26T10:49:59.417Z,2.12
2018-09-26T10:51:18.469Z,2.40
2018-09-26T10:52:35.511Z,4.85
2018-09-26T10:53:52.010Z,3.75
2018-09-26T10:55:09.678Z,3.20
2018-09-26T10:56:26.518Z,3.27
2018-09-26T10:57:44.088Z,4.30
2018-09-26T10:59:01.467Z,5.15
2018-09-26T11:00:19.009Z,5.12
2018-09-26T11:01:36.268Z,2.05
2018-09-26T11:02:53.266Z,4.03
2018-09-26T11:04:10.302Z,4.83
2018-09-26T11:05:28.225Z,5.45
2018-09-26T11:06:46.167Z,3.62
2018-09-26T11:08:05.436Z,4.15
2018-09-26T11:09:23.606Z,5.17
2018-09-26T11:10:40.869Z,8.45
2018-09-26T11:11:59.399Z,2.25
2018-09-26T11:13:18.158Z,5.72
2018-09-26T11:14:37.298Z,2.60
2018-09-26T11:16:00.055Z,3.45
2018-09-26T11:17:22.756Z,7.12
2018-09-26T11:18:39.779Z,4.90
2018-09-26T11:19:57.237Z,3.35
2018-09-26T11:21:16.584Z,3.12
2018-09-26T11:22:33.588Z,3.75
2018-09-26T11:23:51.253Z,3.95
2018-09-26T11:25:12.811Z,5.05
2018-09-26T11:26:31.096Z,2.90
2018-09-26T11:27:50.179Z,8.38
2018-09-26T11:29:09.391Z,4.95
2018-09-26T11:30:27.613Z,2.80
2018-09-26T11:31:47.661Z,3.58
2018-09-26T11:33:05.248Z,2.98
2018-09-26T11:34:22.869Z,8.83
2018-09-26T11:35:39.778Z,6.00
2018-09-26T11:36:57.663Z,2.83
2018-09-26T11:38:15.279Z,4.62
2018-09-26T11:39:32.427Z,4.53
2018-09-26T11:40:55.368Z,4.50
2018-09-26T11:42:13.438Z,1.77
2018-09-26T11:43:30.902Z,2.05
2018-09-26T11:44:52.672Z,2.05
2018-09-26T11:46:11.528Z,20.77
2018-09-26T11:47:30.849Z,8.13
2018-09-26T11:48:48.063Z,8.83
2018-09-26T11:50:08.487Z,3.20
2018-09-26T11:51:25.910Z,3.83
2018-09-26T11:52:44.466Z,5.65
2018-09-26T11:54:09.375Z,2.30
2018-09-26T11:55:26.651Z,8.33
2018-09-26T11:56:43.423Z,8.75
2018-09-26T11:58:00.393Z,17.15
2018-09-26T11:59:20.570Z,10.50
2018-09-26T12:12:04.207Z,5.90
2018-09-26T12:13:21.082Z,9.73
2018-09-26T12:14:39.523Z,343.52
2018-09-26T12:15:57.688Z,319.95
2018-09-26T12:17:16.620Z,208.30
2018-09-26T12:18:34.720Z,239.12
2018-09-26T12:21:47.594Z,206.05
2018-09-26T12:23:25.227Z,200.00
2018-09-26T12:24:43.827Z,179.90
2018-09-26T12:26:01.687Z,194.95
2018-09-26T12:27:19.814Z,217.43
2018-09-26T12:28:38.205Z,167.20
2018-09-26T12:29:56.198Z,151.22
2018-09-26T12:31:13.086Z,151.25
2018-09-26T12:32:32.081Z,118.53
2018-09-26T12:33:49.864Z,123.85
2018-09-26T12:35:07.298Z,140.07
2018-09-26T12:36:26.738Z,125.50
2018-09-26T12:37:45.782Z,119.10
2018-09-26T12:39:07.487Z,107.55
2018-09-26T12:40:26.365Z,112.10
2018-09-26T12:41:45.418Z,104.23
2018-09-26T12:44:29.046Z,82.00
2018-09-26T12:45:48.320Z,100.60
2018-09-26T12:47:06.340Z,66.12
2018-09-26T12:48:26.837Z,70.40
2018-09-26T12:49:48.690Z,76.50
2018-09-26T12:51:12.003Z,61.15
2018-09-26T12:52:32.824Z,58.95
2018-09-26T12:53:53.715Z,46.15
2018-09-26T12:55:11.391Z,53.02
2018-09-26T12:56:29.848Z,73.15
2018-09-26T12:57:49.265Z,35.52
2018-09-26T12:59:07.886Z,30.35
2018-09-26T13:00:25.973Z,34.13
2018-09-26T13:01:46.778Z,41.68
2018-09-26T13:03:03.990Z,28.85
2018-09-26T13:04:22.951Z,26.17
2018-09-26T13:05:42.105Z,35.88
2018-09-26T13:06:59.356Z,29.60
2018-09-26T13:08:18.884Z,23.65
2018-09-26T13:13:36.227Z,21.42
2018-09-26T13:14:54.206Z,20.05
2018-09-26T13:16:13.524Z,17.30
2018-09-26T13:17:36.348Z,24.90
2018-09-26T13:18:55.488Z,19.35
2018-09-26T13:20:14.148Z,18.48
2018-09-26T13:21:34.804Z,10.72
2018-09-26T13:23:00.675Z,4.70
2018-09-26T13:24:23.864Z,9.13
2018-09-26T13:25:42.388Z,6.83
2018-09-26T13:27:00.770Z,5.50
2018-09-26T13:28:18.119Z,4.85
2018-09-26T13:29:36.687Z,10.85
2018-09-26T13:30:54.559Z,5.70
2018-09-26T13:32:12.731Z,3.12
2018-09-26T13:33:34.283Z,6.95
2018-09-26T13:34:52.535Z,4.15
2018-09-26T13:36:11.065Z,4.45
2018-09-26T13:37:29.108Z,7.03
2018-09-26T13:38:48.412Z,8.68
2018-09-26T13:40:09.483Z,8.78
2018-09-26T13:41:29.545Z,17.23
2018-09-26T13:44:57.058Z,12.78
2018-09-26T13:46:15.518Z,15.38
2018-09-26T13:47:32.835Z,14.60
2018-09-26T13:48:52.300Z,7.22
2018-09-26T13:50:11.697Z,18.37
2018-09-26T13:51:29.743Z,18.50
2018-09-26T13:52:47.597Z,14.93
